• Join FlightAware (Why Join?)
  • Login
  • US Flag 
12:18PM EST


 

Airport Tracker/Info


-or-


 

Live Flight TrackerFlight Track Log ✈ SWA1971 ✈ 14-May-2013 ✈ KOAK - KSNA

Flight Track Log - Related Links

Times and Time Zones

All times are in EDT time to prevent confusion due to time zone crossing. See the SWA1971 flight status page for this flight to view local times or setup timezone preferences in your user account.

Time Position Orientation Groundspeed Altitude Reporting Facility
EDT Latitude Longitude Course Direction KTS MPH feet Rate Location/Type
08:05PM 37.7500 -122.2833 138° Southeast 200 230 2,400  Level Northern Cal TRACON
08:06PM 37.7667 -122.3500 288° West 210 242 3,200 1,800 Climbing Northern Cal TRACON
08:07PM 37.7000 -122.4000 211° Southwest 254 292 6,000 3,060 Climbing Northern Cal TRACON
08:09PM 37.6072 -122.4803 214° Southwest 280 322 11,400 2,940 Climbing Oakland Center
08:10PM 37.6452 -122.1329 138° Southeast  Level Estimated
08:10PM 37.5136 -122.4972 188° South 334 384 13,600  Level Oakland Center
08:11PM 37.4072 -122.5114 186° South 373 429 16,800 3,060 Climbing Oakland Center
08:12PM 37.2964 -122.5264 186° South 393 452 19,900 2,640 Climbing Oakland Center
08:13PM 37.1803 -122.5439 187° South 411 473 22,200 2,400 Climbing Oakland Center
08:14PM 37.0578 -122.4853 159° South 456 525 24,900 2,400 Climbing Oakland Center
08:15PM 36.9533 -122.3911 144° Southeast 458 527 27,200 2,100 Climbing Oakland Center
08:16PM 36.8475 -122.2950 144° Southeast 468 539 29,200 2,040 Climbing Oakland Center
08:17PM 36.7264 -122.1853 144° Southeast 475 547 31,400 1,920 Climbing Oakland Center
08:18PM 36.6308 -122.1000 144° Southeast 481 554 33,200 1,860 Climbing Oakland Center
08:19PM 36.5250 -122.0042 144° Southeast 479 551 35,300 1,860 Climbing Oakland Center
08:20PM 36.3972 -121.8872 144° Southeast 476 548 37,000 1,500 Climbing Oakland Center
08:21PM 36.2892 -121.7931 145° Southeast 473 544 38,400 960 Climbing Oakland Center
08:22PM 36.1839 -121.7008 145° Southeast 466 536 39,000 240 Climbing Oakland Center
08:23PM 36.0803 -121.6081 144° Southeast 462 532 39,000  Level Oakland Center
08:24PM 35.9756 -121.5178 145° Southeast 461 531 39,000  Level Oakland Center
08:25PM 35.8717 -121.4253 144° Southeast 461 531 39,000  Level Oakland Center
08:26PM 35.7681 -121.3361 145° Southeast 457 526 39,000  Level Oakland Center
08:27PM 35.6633 -121.2447 145° Southeast 461 531 39,000  Level Oakland Center
08:28PM 35.5586 -121.1528 144° Southeast 463 533 39,000  Level Oakland Center
08:29PM 35.4294 -121.0478 146° Southeast 466 536 39,000  Level Oakland Center
08:30PM 35.3206 -120.9622 147° Southeast 467 537 39,000  Level Oakland Center
08:31PM 35.2092 -120.8778 148° Southeast 462 532 39,000  Level Los Angeles Center
08:32PM 35.1014 -120.7936 147° Southeast 459 528 39,000  Level Los Angeles Center
08:33PM 34.9928 -120.7086 147° Southeast 461 531 39,000  Level Los Angeles Center
08:34PM 34.8847 -120.6244 147° Southeast 459 528 39,000  Level Los Angeles Center
08:35PM 34.7617 -120.5286 147° Southeast 461 531 39,000  Level Los Angeles Center
08:36PM 34.6544 -120.4442 147° Southeast 462 532 39,000  Level Los Angeles Center
08:37PM 34.5456 -120.3619 148° Southeast 463 533 39,000 -840 Level Los Angeles Center
08:38PM 34.4397 -120.2811 148° Southeast 455 524 37,300 -2,280 Descending Los Angeles Center
08:39PM 34.3144 -120.1864 148° Southeast 448 516 34,300 -2,520 Descending Los Angeles Center
08:40PM 34.2244 -120.0864 137° Southeast 448 516 32,200 -2,100 Descending Los Angeles Center
08:41PM 34.1614 -119.9569 120° Southeast 449 517 30,000 -2,100 Descending Los Angeles Center
08:42PM 34.0983 -119.8303 121° Southeast 445 512 27,900 -2,040 Descending Los Angeles Center
08:43PM 34.0342 -119.7058 122° Southeast 440 506 25,900 -2,040 Descending Los Angeles Center
08:45PM 33.9733 -119.5850 121° Southeast 430 495 23,800 -2,220 Descending Los Angeles Center
08:46PM 33.9019 -119.4428 121° Southeast 420 483 21,400 -2,100 Descending Los Angeles Center
08:47PM 33.8453 -119.3281 121° Southeast 400 460 19,500 -1,800 Descending Los Angeles Center
08:48PM 33.7892 -119.2183 122° Southeast 384 442 17,700 -1,860 Descending Los Angeles Center
08:49PM 33.7344 -119.1122 122° Southeast 376 433 15,700 -1,920 Descending Los Angeles Center
08:50PM 33.6794 -119.0075 122° Southeast 372 428 13,800 -1,980 Descending Los Angeles Center
08:51PM 33.6169 -118.8864 122° Southeast 360 414 11,600 -1,500 Descending Los Angeles Center
08:52PM 33.5683 -118.7908 121° Southeast 341 392 10,700 -1,080 Descending Los Angeles Center
08:53PM 33.5217 -118.7047 123° Southeast 318 366 9,500 -1,380 Descending Los Angeles Center
08:54PM 33.5169 -118.6083 93° East 305 351 7,900 -1,500 Descending Los Angeles Center
08:55PM 33.5231 -118.5117 86° East 297 342 6,400 -1,440 Descending Los Angeles Center
08:56PM 33.5328 -118.3969 84° East 293 337 5,000 -720 Descending Los Angeles Center
08:57PM 33.5392 -118.3028 85° East 290 334 5,000  Level Los Angeles Center
08:58PM 33.5483 -118.2097 83° East 287 330 5,000  Level Los Angeles Center
08:59PM 33.5892 -118.1314 58° Northeast 284 327 5,000  Level Los Angeles Center
09:00PM 33.6283 -118.0636 55° Northeast 259 298 5,000  Level Los Angeles Center
09:01PM 33.6500 -118.0167 61° Northeast 241 277 5,000  Level Southern California TRACON
09:02PM 33.7000 -117.9500 48° Northeast 233 268 5,000 -300 Level Southern California TRACON
09:03PM 33.7500 -117.9000 40° Northeast 228 262 4,500 -900 Descending Southern California TRACON
09:04PM 33.8000 -117.8500 40° Northeast 223 257 3,200 -900 Descending Southern California TRACON
09:05PM 33.8000 -117.8000 90° East 191 220 2,800 -660 Descending Southern California TRACON
09:06PM 33.7500 -117.8167 195° South 154 177 1,900 -900 Descending Southern California TRACON
09:07PM 33.7333 -117.8333 220° Southwest 129 148 1,100 -780 Descending Southern California TRACON
09:08PM 33.7000 -117.8500 203° Southwest 134 154 400 -720 Descending Southern California TRACON